Time;durP1;ratioP1;P1;durP2;ratioP2;P2;SDS_P1;SDS_P2;PMS_P1;PMS_P2;Temp;Humidity;BMP_temperature;BMP_pressure;BME280_temperature;BME280_humidity;BME280_pressure;Samples;Min_cycle;Max_cycle;Signal;HPM_P1;HPM_P2
2022/01/13 00:00:33;;;;;;;41.88;39.67;;;;;;;-9.40;99.03;102571.50;4990533;28;20035;-65
2022/01/13 00:02:59;;;;;;;38.63;36.65;;;;;;;-9.41;99.25;102566.34;4989391;28;20473;-64
2022/01/13 00:05:28;;;;;;;37.47;35.58;;;;;;;-9.41;99.23;102569.78;4987539;28;20408;-65
2022/01/13 00:07:58;;;;;;;36.90;35.00;;;;;;;-9.38;99.20;102571.50;4983015;28;20033;-66
2022/01/13 00:10:27;;;;;;;39.83;37.80;;;;;;;-9.42;99.03;102569.78;4979438;28;20082;-63
2022/01/13 00:13:02;;;;;;;37.22;35.33;;;;;;;-9.38;98.93;102577.50;4987648;28;20034;-65
2022/01/13 00:18:30;;;;;;;38.70;36.70;;;;;;;-9.36;98.60;102586.06;4975757;28;20053;-64
2022/01/13 00:23:43;;;;;;;37.13;35.22;;;;;;;-9.43;98.40;102584.34;4984212;28;20038;-63
2022/01/13 00:26:30;;;;;;;36.25;34.42;;;;;;;-9.39;98.64;102588.66;4983705;28;20116;-64
2022/01/13 00:28:57;;;;;;;37.50;35.60;;;;;;;-9.40;98.56;102594.66;4978064;28;20404;-67
2022/01/13 00:31:28;;;;;;;37.88;35.97;;;;;;;-9.35;100.00;102587.78;4973857;28;20043;-65
2022/01/13 00:33:55;;;;;;;34.83;33.10;;;;;;;-9.49;99.60;102580.03;4973416;28;20056;-63
2022/01/13 00:36:26;;;;;;;35.42;33.70;;;;;;;-9.54;99.60;102580.91;4989012;28;20472;-66
2022/01/13 00:38:52;;;;;;;35.75;33.95;;;;;;;-9.54;100.00;102586.91;4989430;28;20088;-65
2022/01/13 00:41:18;;;;;;;37.28;35.47;;;;;;;-9.57;100.00;102579.16;4977737;28;20432;-66
2022/01/13 00:43:46;;;;;;;36.47;34.67;;;;;;;-9.55;99.57;102590.28;4987973;28;20034;-66
2022/01/13 00:46:19;;;;;;;36.20;34.40;;;;;;;-9.49;99.78;102587.75;4977170;28;20086;-63
2022/01/13 00:48:45;;;;;;;35.20;33.47;;;;;;;-9.49;99.79;102584.31;4973661;28;20125;-66
2022/01/13 00:51:10;;;;;;;35.03;33.22;;;;;;;-9.50;99.58;102582.63;4982865;28;20612;-64
2022/01/13 00:53:36;;;;;;;36.67;34.78;;;;;;;-9.47;99.79;102588.63;4989758;28;20403;-63
2022/01/13 00:56:01;;;;;;;35.58;33.78;;;;;;;-9.54;99.25;102586.03;4980860;28;20046;-66
2022/01/13 00:58:32;;;;;;;34.70;33.00;;;;;;;-9.50;99.29;102587.75;4990366;28;20030;-64
2022/01/13 01:00:59;;;;;;;35.25;33.45;;;;;;;-9.48;99.63;102586.88;4990691;28;20026;-69
2022/01/13 01:03:25;;;;;;;34.80;33.03;;;;;;;-9.56;99.36;102577.47;4993384;28;20054;-66
2022/01/13 01:05:51;;;;;;;35.55;33.78;;;;;;;-9.57;99.04;102579.16;4993106;28;20041;-67
2022/01/13 01:08:17;;;;;;;34.35;32.65;;;;;;;-9.58;98.74;102577.47;4983324;28;20033;-66
2022/01/13 01:10:46;;;;;;;34.50;32.78;;;;;;;-9.60;99.70;102575.75;4990675;28;20034;-63
2022/01/13 01:13:14;;;;;;;35.72;33.92;;;;;;;-9.61;99.97;102567.19;4991640;28;20061;-66
2022/01/13 01:15:46;;;;;;;35.08;33.28;;;;;;;-9.64;99.89;102574.00;4981974;28;20038;-65
2022/01/13 01:18:23;;;;;;;34.08;32.30;;;;;;;-9.63;99.65;102576.56;4992653;28;20557;-65
2022/01/13 01:21:15;;;;;;;34.83;33.05;;;;;;;-9.64;99.07;102569.72;4991259;28;20030;-67
2022/01/13 01:28:50;;;;;;;35.10;33.30;;;;;;;-9.56;100.00;102570.59;4977172;28;20489;-63
2022/01/13 01:31:18;;;;;;;36.33;34.22;;;;;;;-9.51;99.60;102562.91;4975875;28;20042;-66
2022/01/13 01:33:55;;;;;;;33.25;31.55;;;;;;;-9.50;99.11;102560.34;4987839;28;20054;-64
2022/01/13 01:36:21;;;;;;;32.00;30.40;;;;;;;-9.47;98.79;102562.09;4977299;28;20121;-64
2022/01/13 01:38:49;;;;;;;31.58;29.98;;;;;;;-9.47;98.89;102557.81;4979101;28;20028;-65
2022/01/13 01:41:17;;;;;;;30.45;28.95;;;;;;;-9.46;98.59;102556.09;4977205;28;20362;-65
2022/01/13 01:43:42;;;;;;;32.83;31.17;;;;;;;-9.38;99.14;102556.94;4974981;28;20113;-66
2022/01/13 01:46:08;;;;;;;31.77;30.17;;;;;;;-9.30;98.18;102556.97;4977651;28;20499;-63
2022/01/13 01:48:36;;;;;;;31.58;29.98;;;;;;;-9.20;98.20;102554.38;4979287;28;20030;-65
2022/01/13 01:51:04;;;;;;;29.95;28.45;;;;;;;-9.16;97.99;102554.41;4989939;28;20124;-64
2022/01/13 01:53:30;;;;;;;33.17;31.40;;;;;;;-9.09;97.65;102563.81;4978253;28;20042;-65
2022/01/13 01:55:56;;;;;;;29.10;27.70;;;;;;;-9.05;96.44;102552.66;4990700;28;20117;-66
2022/01/13 01:58:22;;;;;;;30.10;28.60;;;;;;;-9.01;96.44;102554.41;4976413;28;20141;-64
2022/01/13 02:00:48;;;;;;;30.60;29.00;;;;;;;-8.97;96.27;102543.22;4986221;28;20038;-63
2022/01/13 02:03:16;;;;;;;29.70;28.23;;;;;;;-8.91;95.36;102543.22;4990288;28;20117;-63
2022/01/13 02:05:41;;;;;;;29.75;28.25;;;;;;;-8.83;94.96;102543.22;4988991;28;20026;-66
2022/01/13 02:08:07;;;;;;;29.80;28.30;;;;;;;-8.81;94.62;102550.09;4978463;28;20041;-63
2022/01/13 02:10:33;;;;;;;29.88;28.38;;;;;;;-8.79;94.85;102552.66;4985850;28;20085;-65
2022/01/13 02:13:05;;;;;;;28.55;27.15;;;;;;;-8.80;94.73;102551.81;4989189;28;20473;-64
2022/01/13 02:18:15;;;;;;;29.85;28.35;;;;;;;-8.72;93.63;102560.38;4980710;28;20046;-62
2022/01/13 02:20:46;;;;;;;29.25;27.80;;;;;;;-8.64;93.47;102560.34;4981108;28;20185;-65
2022/01/13 02:23:12;;;;;;;29.42;27.92;;;;;;;-8.60;93.40;102561.19;4976050;28;20035;-66
2022/01/13 02:25:37;;;;;;;27.83;26.42;;;;;;;-8.59;93.33;102550.91;4974852;28;20018;-65
2022/01/13 02:28:03;;;;;;;27.50;26.10;;;;;;;-8.54;92.74;102549.16;4991629;28;20026;-65
2022/01/13 02:30:29;;;;;;;27.05;25.65;;;;;;;-8.57;92.39;102545.75;4991359;28;20172;-66
2022/01/13 02:32:54;;;;;;;25.85;24.50;;;;;;;-8.48;92.58;102535.44;4974615;28;20030;-65
2022/01/13 02:35:20;;;;;;;25.48;24.17;;;;;;;-8.44;92.00;102550.03;4975180;28;20057;-65
2022/01/13 02:37:45;;;;;;;26.58;25.17;;;;;;;-8.45;91.93;102545.72;4976344;28;20389;-66
2022/01/13 02:40:11;;;;;;;26.08;24.73;;;;;;;-8.49;92.32;102554.31;4979377;28;20026;-63
2022/01/13 02:42:36;;;;;;;24.08;22.88;;;;;;;-8.42;92.23;102554.28;4975812;28;20027;-65
2022/01/13 02:45:05;;;;;;;25.33;23.92;;;;;;;-8.41;91.94;102561.16;4975594;28;20019;-64
2022/01/13 02:50:08;;;;;;;24.83;23.52;;;;;;;-8.32;91.73;102552.50;4978684;28;20362;-66
2022/01/13 02:52:34;;;;;;;24.55;23.33;;;;;;;-8.39;91.62;102543.13;4984737;28;20080;-63
2022/01/13 02:55:00;;;;;;;26.80;25.33;;;;;;;-8.36;92.08;102549.13;4976491;28;20536;-63
2022/01/13 02:57:25;;;;;;;25.30;24.00;;;;;;;-8.46;91.27;102552.56;4975938;28;20058;-65
2022/01/13 02:59:51;;;;;;;27.45;26.05;;;;;;;-8.36;91.37;102551.72;4981171;28;20545;-63
2022/01/13 03:02:16;;;;;;;25.60;24.30;;;;;;;-8.42;91.18;102556.03;4976055;28;20023;-66
2022/01/13 03:04:46;;;;;;;28.50;26.98;;;;;;;-8.33;91.48;102555.94;4991192;28;20018;-65
2022/01/13 03:07:12;;;;;;;25.52;24.23;;;;;;;-8.34;91.33;102556.81;4983764;28;20043;-66
2022/01/13 03:09:37;;;;;;;26.17;24.88;;;;;;;-8.28;90.98;102548.22;4976157;28;20034;-66
2022/01/13 03:12:03;;;;;;;28.48;27.05;;;;;;;-8.20;92.24;102555.06;4987647;28;20031;-64
2022/01/13 03:14:29;;;;;;;25.25;23.95;;;;;;;-8.32;90.90;102552.50;4991921;28;20109;-64
2022/01/13 03:16:54;;;;;;;24.13;22.92;;;;;;;-8.26;90.71;102543.91;4982556;28;20030;-67
2022/01/13 03:19:22;;;;;;;25.08;23.77;;;;;;;-8.23;90.61;102547.31;4975162;28;20030;-67
2022/01/13 03:21:48;;;;;;;24.85;23.55;;;;;;;-8.21;90.29;102544.75;4977312;28;20035;-64
2022/01/13 03:24:13;;;;;;;23.52;22.33;;;;;;;-8.19;90.46;102543.03;4982808;28;20037;-67
2022/01/13 03:26:39;;;;;;;24.42;23.23;;;;;;;-8.23;89.54;102538.75;4991360;28;20111;-65
2022/01/13 03:31:37;;;;;;;25.88;24.55;;;;;;;-8.14;89.74;102544.72;4988897;28;20065;-68
2022/01/13 03:34:02;;;;;;;24.98;23.77;;;;;;;-8.14;89.70;102534.44;4989505;28;20384;-65
2022/01/13 03:36:28;;;;;;;25.35;24.00;;;;;;;-8.15;89.71;102531.84;4986873;28;20048;-66
2022/01/13 03:38:54;;;;;;;24.52;23.23;;;;;;;-8.22;89.56;102533.63;4990184;28;20076;-66
2022/01/13 03:41:21;;;;;;;24.80;23.58;;;;;;;-8.24;90.04;102522.44;4979164;28;20034;-64
2022/01/13 03:43:51;;;;;;;24.15;22.95;;;;;;;-8.28;89.73;102533.63;4974456;28;20434;-66
2022/01/13 03:46:16;;;;;;;24.80;23.60;;;;;;;-8.30;89.91;102526.75;4974545;28;20117;-65
2022/01/13 03:48:43;;;;;;;24.00;22.80;;;;;;;-8.36;89.74;102533.69;4973229;28;20413;-66
2022/01/13 03:51:09;;;;;;;24.60;23.30;;;;;;;-8.36;89.90;102525.13;4980808;28;20061;-67
2022/01/13 03:53:52;;;;;;;26.35;24.95;;;;;;;-8.41;90.50;102532.00;4983427;28;20027;-66
2022/01/13 03:56:42;;;;;;;25.67;24.38;;;;;;;-8.38;89.91;102529.38;4984807;28;20129;-64
2022/01/13 03:59:31;;;;;;;27.23;25.92;;;;;;;-8.32;90.19;102528.50;4976295;28;20109;-65
2022/01/13 04:02:07;;;;;;;25.55;24.25;;;;;;;-8.38;90.39;102522.53;4989613;28;20066;-65
2022/01/13 04:04:44;;;;;;;25.63;24.33;;;;;;;-8.31;90.40;102523.31;4974562;28;20035;-68
2022/01/13 04:07:12;;;;;;;24.83;23.52;;;;;;;-8.31;90.12;102532.78;4980765;28;20070;-66
2022/01/13 04:09:38;;;;;;;24.90;23.70;;;;;;;-8.28;90.40;102536.22;4986008;28;20481;-65
2022/01/13 04:12:06;;;;;;;26.60;25.20;;;;;;;-8.35;90.45;102530.22;4984903;28;20026;-64
2022/01/13 04:14:43;;;;;;;28.15;26.67;;;;;;;-8.39;90.11;102515.66;4981845;28;20031;-64
2022/01/13 04:17:11;;;;;;;24.77;23.50;;;;;;;-8.35;90.20;102522.50;4979646;28;20381;-67
2022/01/13 04:19:36;;;;;;;25.05;23.75;;;;;;;-8.41;90.10;102524.25;4980841;28;20379;-68
2022/01/13 04:22:06;;;;;;;26.40;25.05;;;;;;;-8.34;89.74;102525.94;4981248;28;20030;-67
2022/01/13 04:24:32;;;;;;;25.52;24.15;;;;;;;-8.35;89.87;102526.81;4989563;28;20030;-67
2022/01/13 04:26:59;;;;;;;26.20;24.77;;;;;;;-8.33;90.00;102532.78;4989401;28;20039;-62
2022/01/13 04:29:33;;;;;;;24.67;23.48;;;;;;;-8.39;89.71;102528.53;4994710;28;20030;-66
2022/01/13 04:31:59;;;;;;;25.58;24.27;;;;;;;-8.40;90.06;102525.97;4981041;28;20031;-66
2022/01/13 04:34:26;;;;;;;26.15;24.75;;;;;;;-8.43;90.45;102528.56;4983330;28;20041;-66
2022/01/13 04:36:54;;;;;;;26.50;25.10;;;;;;;-8.56;91.01;102529.47;4979409;28;20070;-68
2022/01/13 04:39:20;;;;;;;26.00;24.70;;;;;;;-8.60;90.52;102533.75;4976222;28;20058;-66
2022/01/13 04:41:47;;;;;;;25.85;24.48;;;;;;;-8.65;91.51;102533.78;4978883;28;20031;-63
2022/01/13 04:44:16;;;;;;;27.38;25.98;;;;;;;-8.70;91.75;102520.06;4977124;28;20114;-65
2022/01/13 04:46:43;;;;;;;27.55;26.10;;;;;;;-8.73;91.69;102529.50;4983397;28;20535;-63
2022/01/13 04:49:09;;;;;;;28.33;26.83;;;;;;;-8.83;92.05;102527.78;4991548;28;20038;-65
2022/01/13 04:51:36;;;;;;;28.45;27.05;;;;;;;-8.86;92.03;102528.66;4983415;28;20445;-64
2022/01/13 04:54:03;;;;;;;28.88;27.38;;;;;;;-8.84;92.44;102521.78;4986118;28;20042;-66
2022/01/13 04:56:31;;;;;;;29.52;27.90;;;;;;;-8.83;92.11;102520.94;4992945;28;20520;-66
2022/01/13 04:58:57;;;;;;;28.95;27.50;;;;;;;-8.86;92.40;102530.38;4991183;28;20027;-67
2022/01/13 05:01:23;;;;;;;29.25;27.80;;;;;;;-8.90;92.94;102529.50;4984440;28;20045;-64
2022/01/13 05:03:49;;;;;;;29.33;27.73;;;;;;;-8.87;92.89;102532.09;4986270;28;20030;-64
2022/01/13 05:06:19;;;;;;;28.45;26.95;;;;;;;-8.80;94.13;102531.22;4988653;28;20416;-65
2022/01/13 05:08:45;;;;;;;27.55;26.15;;;;;;;-8.80;93.95;102531.22;4984552;28;20035;-65
2022/01/13 05:11:11;;;;;;;27.05;25.65;;;;;;;-8.85;94.09;102545.81;4994357;28;20121;-64
2022/01/13 05:13:37;;;;;;;27.45;26.05;;;;;;;-8.68;96.15;102536.34;4987080;28;20260;-66
2022/01/13 05:16:03;;;;;;;27.63;26.13;;;;;;;-8.53;96.94;102542.31;4978503;28;20039;-64
2022/01/13 05:21:02;;;;;;;27.17;25.77;;;;;;;-8.77;94.27;102518.34;4993739;28;20034;-64
2022/01/13 05:23:27;;;;;;;;;;;;;;;-8.54;94.84;102522.59;4987235;28;20027;-65
2022/01/13 05:25:56;;;;;;;28.73;27.23;;;;;;;-8.55;94.40;102521.72;4979172;28;20418;-66
2022/01/13 05:28:22;;;;;;;26.27;24.98;;;;;;;-8.47;93.90;102525.13;4983752;28;20038;-65
2022/01/13 05:30:47;;;;;;;29.02;27.23;;;;;;;-8.28;92.27;102523.34;4990762;28;20442;-63
2022/01/13 05:33:13;;;;;;;27.75;26.27;;;;;;;-8.06;92.95;102524.09;4986194;28;20042;-64
2022/01/13 05:35:38;;;;;;;26.02;24.73;;;;;;;-8.40;92.70;102531.13;4990380;28;20057;-66
2022/01/13 05:38:05;;;;;;;28.85;27.25;;;;;;;-8.42;92.17;102538.00;4983092;28;20077;-65
2022/01/13 05:40:32;;;;;;;25.80;24.45;;;;;;;-8.44;91.21;102537.16;4978881;28;20062;-66
2022/01/13 05:42:57;;;;;;;27.85;26.25;;;;;;;-8.37;91.85;102554.28;4984332;28;20052;-64
2022/01/13 05:45:28;;;;;;;28.02;26.33;;;;;;;-8.40;91.00;102544.00;4987967;28;20439;-66
2022/01/13 05:47:55;;;;;;;26.00;24.63;;;;;;;-8.00;89.74;102546.41;4979664;28;20113;-67
2022/01/13 05:50:21;;;;;;;26.30;24.92;;;;;;;-8.43;89.69;102533.72;4989744;28;20451;-66
2022/01/13 05:52:47;;;;;;;25.77;24.48;;;;;;;-8.30;89.62;102539.63;4983923;28;20035;-69
2022/01/13 05:55:14;;;;;;;28.38;26.98;;;;;;;-8.39;89.37;102538.84;4988016;28;20563;-67
2022/01/13 05:57:39;;;;;;;26.90;25.50;;;;;;;-8.16;88.84;102538.72;4980633;28;20042;-65
2022/01/13 06:00:07;;;;;;;26.40;25.05;;;;;;;-8.24;88.51;102526.75;4984904;28;20034;-66
2022/01/13 06:02:32;;;;;;;25.58;24.17;;;;;;;-8.14;88.01;102524.13;4982696;28;20342;-65
2022/01/13 06:04:58;;;;;;;26.45;25.02;;;;;;;-8.25;88.30;102522.47;4986103;28;20035;-65
2022/01/13 06:07:23;;;;;;;26.42;25.13;;;;;;;-8.12;89.05;102542.16;4994254;28;20057;-66
2022/01/13 06:09:49;;;;;;;25.25;23.85;;;;;;;-7.95;88.02;102535.19;4989715;28;20431;-67
2022/01/13 06:12:16;;;;;;;26.75;25.25;;;;;;;-7.99;88.79;102532.66;4982886;28;20455;-65
2022/01/13 06:14:42;;;;;;;26.17;24.77;;;;;;;-7.66;86.72;102529.03;4985609;28;20477;-66
2022/01/13 06:17:07;;;;;;;25.63;24.20;;;;;;;-7.86;86.95;102521.41;4977951;28;20030;-63
2022/01/13 06:19:33;;;;;;;26.98;25.52;;;;;;;-7.95;86.20;102519.72;4989463;28;20038;-68
2022/01/13 06:21:58;;;;;;;25.25;23.85;;;;;;;-7.95;86.36;102530.03;4995350;28;20034;-63
2022/01/13 06:24:23;;;;;;;24.50;23.20;;;;;;;-7.96;85.93;102515.44;4976772;28;20034;-63
2022/01/13 06:26:49;;;;;;;22.52;21.42;;;;;;;-7.92;85.58;102506.00;4981811;28;20042;-63
2022/01/13 06:29:14;;;;;;;25.02;23.70;;;;;;;-7.95;85.18;102488.81;4973108;28;20051;-65
2022/01/13 06:31:40;;;;;;;25.13;23.83;;;;;;;-7.76;85.75;102487.00;4982100;28;20109;-64
2022/01/13 06:34:05;;;;;;;24.15;22.75;;;;;;;-7.09;82.75;102486.47;4982560;28;20397;-64
2022/01/13 06:36:31;;;;;;;20.70;19.50;;;;;;;-5.40;77.13;102470.50;4977698;28;20077;-65
2022/01/13 06:38:57;;;;;;;16.27;15.45;;;;;;;-3.43;69.76;102460.44;4975443;28;20038;-66
2022/01/13 06:41:23;;;;;;;13.38;12.68;;;;;;;-1.83;62.34;102462.94;4976902;28;20027;-65
2022/01/13 06:43:48;;;;;;;12.63;11.93;;;;;;;-0.60;57.75;102461.34;4981902;28;20021;-65
2022/01/13 06:46:15;;;;;;;11.30;10.70;;;;;;;0.47;53.51;102477.28;4983908;28;20524;-65
2022/01/13 06:48:42;;;;;;;11.70;11.00;;;;;;;-0.20;53.40;102470.31;4976098;28;20031;-64
2022/01/13 06:51:07;;;;;;;11.10;10.48;;;;;;;0.67;51.60;102463.41;4978941;28;20034;-64
2022/01/13 06:53:33;;;;;;;10.80;10.20;;;;;;;0.81;49.32;102459.31;4977360;28;20361;-64
2022/01/13 06:55:59;;;;;;;10.38;9.85;;;;;;;1.05;47.79;102453.97;4987445;28;20257;-64
2022/01/13 06:58:24;;;;;;;10.00;9.50;;;;;;;2.53;47.20;102467.22;4981402;28;20389;-64
2022/01/13 07:00:50;;;;;;;10.45;9.95;;;;;;;2.32;45.99;102469.09;4972996;28;20030;-63
2022/01/13 07:03:15;;;;;;;10.60;10.00;;;;;;;2.98;44.94;102469.31;4975224;28;20018;-63
2022/01/13 07:05:41;;;;;;;11.18;10.57;;;;;;;2.40;43.60;102472.19;4977401;28;20023;-64
2022/01/13 07:08:12;;;;;;;12.10;11.40;;;;;;;2.66;43.18;102478.78;4977052;28;20397;-64
2022/01/13 07:10:38;;;;;;;10.48;9.98;;;;;;;1.00;45.54;102472.44;4982328;28;20045;-63
2022/01/13 07:13:03;;;;;;;10.85;10.25;;;;;;;2.71;43.46;102493.34;4980384;28;20027;-64
2022/01/13 07:15:31;;;;;;;10.73;10.18;;;;;;;4.43;41.05;102495.63;4980629;28;20420;-65
2022/01/13 07:17:57;;;;;;;10.00;9.30;;;;;;;5.29;38.74;102499.38;4980905;28;20472;-64
2022/01/13 07:20:23;;;;;;;9.73;9.23;;;;;;;4.79;38.68;102490.03;4976189;28;20038;-66
2022/01/13 07:22:50;;;;;;;10.15;9.65;;;;;;;4.79;38.32;102478.69;4986600;28;20470;-66
2022/01/13 07:25:16;;;;;;;10.70;10.15;;;;;;;4.12;39.38;102476.31;4969933;28;20030;-67
2022/01/13 07:27:41;;;;;;;9.40;8.90;;;;;;;5.70;36.48;102475.75;4977561;28;20035;-64
2022/01/13 07:30:08;;;;;;;10.23;9.70;;;;;;;6.32;35.63;102478.03;4973555;28;20034;-65
2022/01/13 07:32:34;;;;;;;9.20;8.70;;;;;;;7.06;34.34;102492.47;4982595;28;20081;-65
2022/01/13 07:35:00;;;;;;;8.98;8.57;;;;;;;5.93;34.01;102505.97;4983569;28;20428;-66
2022/01/13 07:37:26;;;;;;;9.15;8.73;;;;;;;6.28;35.41;102493.19;4977880;28;20027;-66
2022/01/13 07:39:52;;;;;;;9.48;8.98;;;;;;;5.97;35.28;102485.56;4978151;28;20027;-65
2022/01/13 07:42:17;;;;;;;8.90;8.50;;;;;;;7.00;33.96;102474.41;4979131;28;20039;-65
2022/01/13 07:44:43;;;;;;;9.10;8.70;;;;;;;7.19;33.57;102462.47;4985014;28;20105;-64
2022/01/13 07:47:08;;;;;;;10.20;9.70;;;;;;;6.40;33.83;102461.72;4979803;28;20088;-65
2022/01/13 07:49:37;;;;;;;10.32;9.82;;;;;;;6.68;34.49;102464.22;4984250;28;20475;-65
2022/01/13 07:52:03;;;;;;;10.00;9.50;;;;;;;7.61;32.27;102456.97;4983392;28;20080;-66
2022/01/13 07:54:30;;;;;;;10.05;9.55;;;;;;;7.42;32.12;102458.28;4978399;28;20022;-65
2022/01/13 07:56:57;;;;;;;10.13;9.63;;;;;;;7.69;32.60;102470.50;4977738;28;20054;-67
2022/01/13 07:59:27;;;;;;;9.82;9.32;;;;;;;7.07;32.04;102475.69;4978665;28;20069;-67
2022/01/13 08:01:53;;;;;;;9.07;8.68;;;;;;;8.16;31.90;102476.84;4976064;28;20038;-66
2022/01/13 08:04:19;;;;;;;9.00;8.60;;;;;;;7.30;32.80;102463.56;4977915;28;20033;-66
2022/01/13 08:06:44;;;;;;;9.07;8.68;;;;;;;7.52;32.50;102461.13;4983054;28;20026;-66
2022/01/13 08:09:10;;;;;;;9.82;9.32;;;;;;;7.61;32.26;102459.63;4979428;28;20031;-66
2022/01/13 08:11:35;;;;;;;9.15;8.75;;;;;;;7.30;32.74;102461.75;4982438;28;20027;-66
2022/01/13 08:14:01;;;;;;;9.98;9.48;;;;;;;7.63;31.92;102460.34;4978906;28;20030;-66
2022/01/13 08:16:32;;;;;;;9.60;9.10;;;;;;;6.91;31.94;102462.69;4979027;28;20022;-65
2022/01/13 08:21:41;;;;;;;9.23;8.82;;;;;;;8.15;31.07;102469.84;4982359;28;20472;-66
2022/01/13 08:24:07;;;;;;;9.05;8.65;;;;;;;8.40;30.86;102463.66;4978747;28;20050;-66
2022/01/13 08:26:33;;;;;;;8.75;8.35;;;;;;;8.43;31.48;102451.03;4981788;28;20477;-66
2022/01/13 08:28:58;;;;;;;9.35;8.93;;;;;;;8.27;30.49;102448.63;4985429;28;20037;-65
2022/01/13 08:31:24;;;;;;;8.88;8.48;;;;;;;9.13;30.04;102444.88;4981739;28;20027;-66
2022/01/13 08:33:50;;;;;;;9.18;8.77;;;;;;;7.98;31.34;102450.75;4977995;28;20039;-66
2022/01/13 08:36:16;;;;;;;9.68;9.18;;;;;;;8.36;31.16;102456.88;4975355;28;20023;-65
2022/01/13 08:38:41;;;;;;;9.43;8.95;;;;;;;8.99;30.48;102463.63;4979915;28;20033;-66
2022/01/13 08:41:07;;;;;;;8.75;8.35;;;;;;;8.70;30.36;102463.16;4983013;28;20026;-66
2022/01/13 08:43:34;;;;;;;8.60;8.20;;;;;;;8.57;30.66;102453.50;4991261;28;20066;-66
2022/01/13 08:46:00;;;;;;;9.88;9.38;;;;;;;8.92;30.38;102451.81;4976282;28;20026;-66
2022/01/13 08:48:25;;;;;;;9.95;9.45;;;;;;;8.33;30.39;102452.63;4978465;28;20424;-65
2022/01/13 08:50:52;;;;;;;10.48;9.93;;;;;;;8.75;30.38;102439.84;4974117;28;20397;-67
2022/01/13 08:53:18;;;;;;;9.90;9.40;;;;;;;9.04;29.98;102427.91;4975324;28;20030;-67
2022/01/13 08:55:44;;;;;;;9.55;9.05;;;;;;;8.29;30.43;102427.38;4986795;28;20034;-66
2022/01/13 08:58:09;;;;;;;8.98;8.57;;;;;;;8.01;31.21;102418.00;4982664;28;20078;-65
2022/01/13 09:00:37;;;;;;;9.52;9.02;;;;;;;7.83;31.96;102411.38;4973947;28;20488;-65
2022/01/13 09:03:07;;;;;;;9.52;9.02;;;;;;;8.58;30.58;102407.56;4983028;28;20073;-63
2022/01/13 09:05:33;;;;;;;8.90;8.50;;;;;;;6.83;33.26;102393.75;4979379;28;20027;-66
2022/01/13 09:07:59;;;;;;;10.10;9.60;;;;;;;7.89;32.44;102392.44;4977379;28;20035;-67
2022/01/13 09:10:24;;;;;;;8.95;8.55;;;;;;;9.25;30.27;102374.19;4981667;28;20030;-68
2022/01/13 09:12:50;;;;;;;9.60;9.10;;;;;;;8.64;30.71;102374.50;4976351;28;20440;-66
2022/01/13 09:15:39;;;;;;;9.15;8.75;;;;;;;8.27;31.11;102350.81;4977681;28;20916;-66
2022/01/13 09:18:17;;;;;;;8.73;8.32;;;;;;;9.02;30.67;102352.19;4982133;28;20098;-66
2022/01/13 09:20:43;;;;;;;10.55;9.95;;;;;;;9.18;30.06;102343.88;4983163;28;20030;-66
2022/01/13 09:23:10;;;;;;;9.85;9.35;;;;;;;7.90;31.90;102330.72;4980195;28;20026;-63
2022/01/13 09:25:36;;;;;;;9.68;9.18;;;;;;;8.38;30.39;102320.13;4977296;28;20050;-65
2022/01/13 09:28:04;;;;;;;9.35;8.93;;;;;;;7.86;31.20;102326.59;4982478;28;20061;-64
2022/01/13 09:30:30;;;;;;;9.00;8.60;;;;;;;7.86;30.56;102314.25;4985012;28;20026;-68
2022/01/13 09:32:55;;;;;;;8.77;8.38;;;;;;;8.65;30.89;102317.16;4988772;28;20503;-67
2022/01/13 09:35:21;;;;;;;9.23;8.77;;;;;;;6.66;31.98;102313.16;4983337;28;20042;-66
2022/01/13 09:37:47;;;;;;;9.05;8.65;;;;;;;3.23;38.70;102303.66;4980940;28;20142;-68
2022/01/13 09:40:13;;;;;;;9.73;9.23;;;;;;;2.98;40.59;102297.13;4981942;28;20388;-65
2022/01/13 09:42:40;;;;;;;9.52;9.05;;;;;;;2.71;41.05;102299.41;4979524;28;20041;-64
2022/01/13 09:45:07;;;;;;;10.88;10.35;;;;;;;2.03;42.32;102284.63;4983184;28;20039;-63
2022/01/13 09:47:35;;;;;;;11.45;10.85;;;;;;;1.96;42.97;102293.69;4982003;28;20090;-66
2022/01/13 09:50:01;;;;;;;12.00;11.40;;;;;;;1.10;45.83;102300.38;4983275;28;20034;-67
2022/01/13 09:52:28;;;;;;;12.23;11.52;;;;;;;1.14;45.25;102288.88;4982358;28;20479;-66
2022/01/13 09:54:55;;;;;;;11.55;10.95;;;;;;;0.93;46.27;102297.69;4984202;28;20396;-65
2022/01/13 09:57:21;;;;;;;12.95;12.25;;;;;;;0.97;46.77;102288.81;4977303;28;20447;-63
2022/01/13 09:59:46;;;;;;;12.05;11.38;;;;;;;0.47;46.18;102282.31;4976506;28;20042;-66
2022/01/13 10:02:12;;;;;;;12.05;11.35;;;;;;;0.46;47.40;102283.22;4987065;28;20161;-66
2022/01/13 10:04:49;;;;;;;13.18;12.48;;;;;;;0.65;47.22;102298.06;4980771;28;20105;-66
2022/01/13 10:07:29;;;;;;;11.75;11.15;;;;;;;0.08;48.12;102290.06;4984966;28;20037;-66
2022/01/13 10:09:58;;;;;;;12.00;11.30;;;;;;;-0.16;49.39;102298.88;4981337;28;20034;-67
2022/01/13 10:12:33;;;;;;;12.20;11.50;;;;;;;0.44;47.60;102290.28;4981612;28;20356;-67
2022/01/13 10:17:45;;;;;;;12.18;11.48;;;;;;;0.46;47.55;102293.66;4978686;28;20030;-67
2022/01/13 10:20:12;;;;;;;11.23;10.63;;;;;;;0.11;48.66;102291.69;4982415;28;20029;-66
2022/01/13 10:22:37;;;;;;;11.60;11.00;;;;;;;0.32;47.98;102275.13;4980691;28;20038;-67
2022/01/13 10:25:03;;;;;;;11.10;10.50;;;;;;;0.38;48.27;102277.50;4976542;28;20034;-68
2022/01/13 10:27:35;;;;;;;11.00;10.48;;;;;;;0.42;47.41;102281.66;4976920;28;20039;-67
2022/01/13 10:30:04;;;;;;;12.13;11.43;;;;;;;0.00;48.64;102268.69;4980825;28;20373;-67
2022/01/13 10:32:39;;;;;;;10.95;10.35;;;;;;;-0.22;49.47;102273.06;4981861;28;20042;-67
2022/01/13 10:35:06;;;;;;;;;;;;;;;-0.57;49.91;102263.16;4978387;28;20056;-66
2022/01/13 10:37:35;;;;;;;11.30;10.70;;;;;;;-0.28;49.08;102253.31;4975976;28;19918;-66
2022/01/13 10:40:15;;;;;;;12.32;11.55;;;;;;;-0.15;49.11;102261.47;4990770;28;20564;-68
2022/01/13 10:43:06;;;;;;;11.50;10.85;;;;;;;-0.11;49.23;102244.78;4983825;28;20034;-68
2022/01/13 10:45:48;;;;;;;10.80;10.20;;;;;;;-0.24;49.21;102235.75;4979415;28;20026;-65
2022/01/13 10:48:22;;;;;;;10.60;10.10;;;;;;;-0.39;48.19;102222.44;4981143;28;20022;-68
2022/01/13 10:51:02;;;;;;;11.85;11.23;;;;;;;-0.28;49.61;102225.47;4975565;28;20066;-66
2022/01/13 10:53:35;;;;;;;11.00;10.45;;;;;;;-0.18;49.28;102223.31;4987544;28;20029;-66
2022/01/13 10:56:05;;;;;;;12.20;11.50;;;;;;;-0.86;50.31;102208.72;4976365;28;20026;-68
2022/01/13 10:58:38;;;;;;;11.48;10.88;;;;;;;-0.49;50.00;102197.66;4984007;28;20511;-68
2022/01/13 11:01:04;;;;;;;11.27;10.68;;;;;;;-0.43;49.76;102194.81;4974496;28;20054;-66
2022/01/13 11:03:34;;;;;;;11.38;10.77;;;;;;;-0.23;49.82;102187.91;4978542;28;20061;-68
2022/01/13 11:06:05;;;;;;;10.68;10.10;;;;;;;-0.14;49.35;102185.78;4984545;28;20113;-67
2022/01/13 11:08:45;;;;;;;10.88;10.27;;;;;;;-0.27;49.25;102174.16;4985176;28;20408;-67
2022/01/13 11:11:29;;;;;;;10.75;10.15;;;;;;;-0.28;49.21;102175.09;4979965;28;20035;-67
2022/01/13 11:14:09;;;;;;;10.95;10.45;;;;;;;-0.58;49.08;102172.84;4984438;28;20030;-66
2022/01/13 11:16:37;;;;;;;11.20;10.60;;;;;;;-0.52;49.31;102169.09;4975601;28;20126;-70
2022/01/13 11:19:05;;;;;;;11.18;10.57;;;;;;;-0.59;49.88;102165.06;4986299;28;20109;-67
2022/01/13 11:21:31;;;;;;;11.68;11.07;;;;;;;-0.29;48.92;102171.63;4984509;28;20121;-70
2022/01/13 11:23:59;;;;;;;11.75;11.07;;;;;;;-0.18;48.26;102173.78;4979684;28;20079;-68
2022/01/13 11:26:32;;;;;;;11.48;10.77;;;;;;;-0.07;47.81;102165.50;4982255;28;20026;-68
2022/01/13 11:29:00;;;;;;;11.02;10.43;;;;;;;0.15;47.27;102152.38;4979752;28;20118;-68
2022/01/13 11:31:26;;;;;;;10.93;10.32;;;;;;;-0.14;48.09;102140.59;4982484;28;20025;-67
2022/01/13 11:33:51;;;;;;;11.07;10.48;;;;;;;-0.20;49.13;102130.41;4976250;28;20026;-67
2022/01/13 11:36:18;;;;;;;11.13;10.52;;;;;;;-0.40;49.05;102129.50;4977855;28;20060;-69
2022/01/13 11:39:00;;;;;;;11.52;10.90;;;;;;;-0.30;49.98;102124.72;4977578;28;20373;-68
2022/01/13 11:41:25;;;;;;;11.48;10.77;;;;;;;-0.50;50.37;102122.16;4984161;28;20080;-67
2022/01/13 11:43:51;;;;;;;12.02;11.32;;;;;;;-0.43;49.99;102110.53;4977682;28;20488;-68